Time;durP1;ratioP1;P1;durP2;ratioP2;P2;SDS_P1;SDS_P2;PMS_P1;PMS_P2;Temp;Humidity;BMP_temperature;BMP_pressure;BME280_temperature;BME280_humidity;BME280_pressure;Samples;Min_cycle;Max_cycle;Signal;HPM_P1;HPM_P2
2023/07/15 00:00:23;;;;;;;5.10;2.55;;;;;;;;;;4937684;29;20143;-82
2023/07/15 00:02:50;;;;;;;6.57;2.60;;;;;;;;;;4954345;29;20558;-80
2023/07/15 00:05:22;;;;;;;8.10;3.13;;;;;;;;;;4955074;29;20051;-82
2023/07/15 00:07:48;;;;;;;5.43;2.75;;;;;;;;;;4954180;29;20499;-82
2023/07/15 00:10:15;;;;;;;6.47;2.67;;;;;;;;;;4936490;29;20087;-81
2023/07/15 00:12:40;;;;;;;4.55;2.70;;;;;;;;;;4953807;29;20024;-81
2023/07/15 00:15:08;;;;;;;5.18;2.58;;;;;;;;;;4953599;29;20035;-81
2023/07/15 00:17:33;;;;;;;5.70;2.53;;;;;;;;;;4953570;29;20110;-80
2023/07/15 00:19:59;;;;;;;5.97;2.70;;;;;;;;;;4954500;28;20062;-81
2023/07/15 00:22:24;;;;;;;5.20;2.85;;;;;;;;;;4939805;29;20034;-80
2023/07/15 00:24:50;;;;;;;6.45;2.92;;;;;;;;;;4924116;29;20034;-80
2023/07/15 00:27:15;;;;;;;7.18;3.00;;;;;;;;;;4939999;29;20033;-80
2023/07/15 00:29:42;;;;;;;6.18;2.80;;;;;;;;;;4940068;29;20038;-81
2023/07/15 00:32:10;;;;;;;7.00;2.70;;;;;;;;;;4924042;29;20035;-80
2023/07/15 00:34:39;;;;;;;6.25;3.05;;;;;;;;;;4940576;29;20058;-81
2023/07/15 00:37:04;;;;;;;7.28;2.42;;;;;;;;;;4908983;29;20431;-81
2023/07/15 00:39:30;;;;;;;5.47;2.90;;;;;;;;;;4943639;29;20046;-81
2023/07/15 00:41:57;;;;;;;7.50;2.72;;;;;;;;;;4971458;28;20043;-80
2023/07/15 00:44:23;;;;;;;5.00;2.40;;;;;;;;;;4947139;29;20027;-81
2023/07/15 00:47:00;;;;;;;5.95;2.63;;;;;;;;;;4979694;28;20048;-80
2023/07/15 00:49:27;;;;;;;6.50;3.00;;;;;;;;;;4947054;29;20031;-80
2023/07/15 00:52:09;;;;;;;6.43;2.63;;;;;;;;;;4946522;29;20062;-80
2023/07/15 00:54:49;;;;;;;5.15;2.67;;;;;;;;;;4977406;29;20083;-80
2023/07/15 00:57:16;;;;;;;6.30;2.88;;;;;;;;;;4957815;29;20059;-80
2023/07/15 00:59:43;;;;;;;5.10;2.80;;;;;;;;;;4921800;29;20035;-80
2023/07/15 01:02:11;;;;;;;5.32;2.75;;;;;;;;;;4950387;29;20098;-81
2023/07/15 01:04:37;;;;;;;;;;;;;;;;;;4959484;29;20471;-80
2023/07/15 01:07:04;;;;;;;6.00;2.60;;;;;;;;;;4940103;29;19918;-81
2023/07/15 01:09:30;;;;;;;7.87;2.90;;;;;;;;;;4924417;29;20039;-82
2023/07/15 01:11:56;;;;;;;13.02;2.60;;;;;;;;;;4940107;29;20273;-79
2023/07/15 01:14:21;;;;;;;8.10;3.08;;;;;;;;;;4923944;29;20406;-81
2023/07/15 01:16:47;;;;;;;5.05;2.47;;;;;;;;;;4957193;29;20057;-81
2023/07/15 01:19:14;;;;;;;9.23;3.15;;;;;;;;;;4939277;29;20038;-80
2023/07/15 01:21:40;;;;;;;4.80;2.67;;;;;;;;;;4922944;29;20035;-81
2023/07/15 01:24:07;;;;;;;5.18;2.58;;;;;;;;;;4956462;29;20035;-81
2023/07/15 01:26:33;;;;;;;7.18;2.30;;;;;;;;;;4923475;29;20035;-82
2023/07/15 01:28:59;;;;;;;5.80;2.85;;;;;;;;;;4908066;29;20078;-81
2023/07/15 01:31:26;;;;;;;4.35;2.40;;;;;;;;;;4923129;29;20031;-81
2023/07/15 01:33:52;;;;;;;6.43;2.50;;;;;;;;;;4956548;29;20035;-80
2023/07/15 01:36:18;;;;;;;5.40;2.78;;;;;;;;;;4956904;29;20225;-81
2023/07/15 01:38:45;;;;;;;7.07;2.75;;;;;;;;;;4956647;28;20038;-79
2023/07/15 01:41:10;;;;;;;6.93;2.50;;;;;;;;;;4959861;29;20028;-81
2023/07/15 01:43:36;;;;;;;11.60;3.13;;;;;;;;;;4926868;29;20034;-82
2023/07/15 01:46:01;;;;;;;6.35;2.67;;;;;;;;;;4959632;29;20475;-81
2023/07/15 01:48:27;;;;;;;6.82;2.50;;;;;;;;;;4942382;28;20479;-81
2023/07/15 01:50:52;;;;;;;6.45;3.05;;;;;;;;;;4926483;29;20402;-80
2023/07/15 01:53:18;;;;;;;6.97;2.60;;;;;;;;;;4924937;29;20042;-81
2023/07/15 01:55:43;;;;;;;6.65;2.65;;;;;;;;;;4941428;29;20035;-83
2023/07/15 01:58:10;;;;;;;8.05;3.20;;;;;;;;;;4942027;29;20115;-79
2023/07/15 02:00:35;;;;;;;8.43;3.20;;;;;;;;;;4925964;29;20059;-80
2023/07/15 02:03:01;;;;;;;6.30;2.55;;;;;;;;;;4957158;29;20050;-81
2023/07/15 02:05:27;;;;;;;4.88;2.40;;;;;;;;;;4939209;29;20498;-81
2023/07/15 02:07:56;;;;;;;;;;;;;;;;;;4925145;29;20058;-81
2023/07/15 02:10:21;;;;;;;4.53;2.15;;;;;;;;;;4938453;29;20000;-82
2023/07/15 02:12:47;;;;;;;6.55;2.75;;;;;;;;;;4939040;29;20081;-80
2023/07/15 02:15:12;;;;;;;5.32;2.40;;;;;;;;;;4942463;29;20441;-80
2023/07/15 02:17:39;;;;;;;5.82;2.47;;;;;;;;;;4942820;29;20031;-82
2023/07/15 02:20:06;;;;;;;5.47;2.50;;;;;;;;;;4955027;28;20035;-82
2023/07/15 02:22:32;;;;;;;4.90;2.25;;;;;;;;;;4937710;29;20028;-81
2023/07/15 02:24:57;;;;;;;5.18;2.42;;;;;;;;;;4922589;29;20038;-80
2023/07/15 02:27:23;;;;;;;6.18;2.67;;;;;;;;;;4925340;29;20102;-81
2023/07/15 02:29:48;;;;;;;6.15;2.53;;;;;;;;;;4941662;29;20035;-81
2023/07/15 02:32:15;;;;;;;7.03;2.53;;;;;;;;;;4955938;29;20062;-80
2023/07/15 02:34:40;;;;;;;6.40;2.22;;;;;;;;;;4939289;29;20046;-81
2023/07/15 02:37:06;;;;;;;5.43;2.42;;;;;;;;;;4939940;29;20027;-80
2023/07/15 02:39:33;;;;;;;5.13;2.33;;;;;;;;;;4959335;28;20074;-80
2023/07/15 02:42:00;;;;;;;6.57;2.60;;;;;;;;;;4953985;28;20028;-82
2023/07/15 02:44:25;;;;;;;4.65;2.35;;;;;;;;;;4921433;29;20542;-81
2023/07/15 02:46:51;;;;;;;6.18;2.33;;;;;;;;;;4937439;29;20154;-80
2023/07/15 02:49:17;;;;;;;5.20;2.42;;;;;;;;;;4954363;28;20042;-79
2023/07/15 02:51:42;;;;;;;6.30;2.90;;;;;;;;;;4937178;29;20046;-80
2023/07/15 02:54:08;;;;;;;6.40;2.65;;;;;;;;;;4954486;29;20435;-79
2023/07/15 02:56:33;;;;;;;4.63;2.33;;;;;;;;;;4954356;29;20031;-79
2023/07/15 02:58:59;;;;;;;5.63;2.42;;;;;;;;;;4921590;29;20506;-80
2023/07/15 03:01:24;;;;;;;8.18;4.38;;;;;;;;;;4936938;29;20039;-81
2023/07/15 03:03:50;;;;;;;10.73;4.57;;;;;;;;;;4937447;29;20047;-80
2023/07/15 03:06:15;;;;;;;6.15;2.78;;;;;;;;;;4937347;29;20497;-80
2023/07/15 03:08:41;;;;;;;5.90;2.67;;;;;;;;;;4937140;29;20038;-82
2023/07/15 03:11:07;;;;;;;5.18;2.70;;;;;;;;;;4936808;29;20058;-80
2023/07/15 03:13:33;;;;;;;4.65;2.50;;;;;;;;;;4937345;29;20039;-80
2023/07/15 03:15:58;;;;;;;5.93;2.63;;;;;;;;;;4958795;29;20027;-82
2023/07/15 03:18:25;;;;;;;5.18;2.40;;;;;;;;;;4946858;28;20437;-81
2023/07/15 03:20:52;;;;;;;5.57;2.60;;;;;;;;;;4963330;29;20031;-81
2023/07/15 03:23:19;;;;;;;;;;;;;;;;;;4945224;23;20131;-75
2023/07/15 03:25:46;;;;;;;4.18;2.30;;;;;;;;;;4950062;29;19911;-77
2023/07/15 03:28:12;;;;;;;7.95;3.38;;;;;;;;;;4928087;29;20032;-74
2023/07/15 03:30:37;;;;;;;8.02;3.58;;;;;;;;;;4945286;29;20051;-76
2023/07/15 03:33:04;;;;;;;8.00;3.05;;;;;;;;;;4910058;29;20036;-73
2023/07/15 03:35:29;;;;;;;5.82;2.70;;;;;;;;;;4889326;29;20031;-76
2023/07/15 03:37:55;;;;;;;9.73;2.90;;;;;;;;;;4935924;29;20502;-74
2023/07/15 03:40:21;;;;;;;9.48;2.95;;;;;;;;;;4935022;29;20115;-76
2023/07/15 03:42:46;;;;;;;5.10;2.40;;;;;;;;;;4917662;29;20516;-76
2023/07/15 03:45:12;;;;;;;7.10;2.25;;;;;;;;;;4935016;29;20098;-76
2023/07/15 03:47:38;;;;;;;5.30;2.40;;;;;;;;;;4917987;29;20063;-76
2023/07/15 03:50:05;;;;;;;9.77;3.08;;;;;;;;;;4934982;29;20023;-77
2023/07/15 03:52:31;;;;;;;4.57;2.67;;;;;;;;;;4934646;29;20036;-76
2023/07/15 03:54:57;;;;;;;8.23;2.50;;;;;;;;;;4904720;29;20090;-76
2023/07/15 03:57:23;;;;;;;5.45;2.45;;;;;;;;;;4921674;29;20031;-76
2023/07/15 03:59:49;;;;;;;5.35;2.72;;;;;;;;;;4905941;29;20027;-76
2023/07/15 04:02:14;;;;;;;4.60;2.58;;;;;;;;;;4938058;29;20042;-75
2023/07/15 04:04:40;;;;;;;7.20;2.83;;;;;;;;;;4938480;29;20055;-75
2023/07/15 04:07:05;;;;;;;5.90;2.38;;;;;;;;;;4938193;29;20123;-75
2023/07/15 04:09:31;;;;;;;5.80;2.60;;;;;;;;;;4937085;29;20039;-76
2023/07/15 04:11:56;;;;;;;12.55;2.78;;;;;;;;;;4920882;29;20049;-77
2023/07/15 04:14:22;;;;;;;4.68;2.28;;;;;;;;;;4920992;29;20043;-77
2023/07/15 04:16:48;;;;;;;5.80;2.50;;;;;;;;;;4921061;29;20035;-75
2023/07/15 04:19:13;;;;;;;5.07;2.35;;;;;;;;;;4920878;29;20496;-75
2023/07/15 04:21:39;;;;;;;5.88;2.83;;;;;;;;;;4920453;29;20039;-75
2023/07/15 04:24:05;;;;;;;5.43;2.83;;;;;;;;;;4937568;29;20127;-75
2023/07/15 04:26:30;;;;;;;7.05;2.67;;;;;;;;;;4937796;29;20034;-76
2023/07/15 04:28:56;;;;;;;7.22;2.65;;;;;;;;;;4937733;29;20036;-75
2023/07/15 04:31:21;;;;;;;6.78;3.67;;;;;;;;;;4920439;29;20082;-76
2023/07/15 04:33:48;;;;;;;6.88;3.85;;;;;;;;;;4937825;29;20368;-77
2023/07/15 04:36:14;;;;;;;6.47;2.70;;;;;;;;;;4937655;29;20087;-76
2023/07/15 04:38:40;;;;;;;7.13;2.40;;;;;;;;;;4937705;29;20476;-76
2023/07/15 04:41:05;;;;;;;6.80;2.53;;;;;;;;;;4904578;29;20114;-76
2023/07/15 04:43:31;;;;;;;5.43;2.28;;;;;;;;;;4920405;29;20218;-75
2023/07/15 04:45:56;;;;;;;5.15;2.60;;;;;;;;;;4937681;29;20027;-75
2023/07/15 04:48:23;;;;;;;5.47;2.55;;;;;;;;;;4937447;29;20079;-74
2023/07/15 04:50:48;;;;;;;3.75;2.20;;;;;;;;;;4936113;29;20584;-76
2023/07/15 04:53:14;;;;;;;6.22;2.70;;;;;;;;;;4937142;29;20375;-76
2023/07/15 04:55:40;;;;;;;4.53;2.20;;;;;;;;;;4937339;29;20031;-76
2023/07/15 04:58:06;;;;;;;6.05;2.53;;;;;;;;;;4920082;29;20476;-74
2023/07/15 05:00:31;;;;;;;8.95;2.85;;;;;;;;;;4920215;29;20047;-77
2023/07/15 05:02:57;;;;;;;4.40;2.60;;;;;;;;;;4920059;29;20122;-75
2023/07/15 05:05:22;;;;;;;8.48;2.78;;;;;;;;;;4936483;29;20032;-76
2023/07/15 05:07:51;;;;;;;5.97;2.38;;;;;;;;;;4937035;29;20097;-75
2023/07/15 05:10:17;;;;;;;6.22;2.35;;;;;;;;;;4936963;29;20491;-76
2023/07/15 05:12:42;;;;;;;3.88;2.10;;;;;;;;;;4903733;29;20039;-77
2023/07/15 05:15:08;;;;;;;5.82;2.35;;;;;;;;;;4936866;29;20028;-74
2023/07/15 05:17:34;;;;;;;4.78;2.33;;;;;;;;;;4920008;29;20581;-74
2023/07/15 05:19:59;;;;;;;4.47;2.38;;;;;;;;;;4919769;29;20503;-77
2023/07/15 05:22:25;;;;;;;4.25;2.50;;;;;;;;;;4919178;29;20062;-75
2023/07/15 05:24:50;;;;;;;6.53;2.67;;;;;;;;;;4937011;29;20517;-76
2023/07/15 05:27:16;;;;;;;4.43;2.25;;;;;;;;;;4903997;29;20480;-76
2023/07/15 05:29:41;;;;;;;7.25;2.28;;;;;;;;;;4903681;29;20456;-75
2023/07/15 05:32:07;;;;;;;4.45;2.20;;;;;;;;;;4936188;29;20038;-75
2023/07/15 05:34:33;;;;;;;6.07;2.05;;;;;;;;;;4936851;29;20036;-76
2023/07/15 05:36:58;;;;;;;4.38;2.38;;;;;;;;;;4919626;29;20046;-75
2023/07/15 05:39:24;;;;;;;10.48;2.80;;;;;;;;;;4903898;29;20483;-75
2023/07/15 05:41:50;;;;;;;8.38;2.42;;;;;;;;;;4936103;29;20074;-74
2023/07/15 05:44:15;;;;;;;6.70;2.40;;;;;;;;;;4904042;29;20034;-76
2023/07/15 05:46:41;;;;;;;4.55;2.08;;;;;;;;;;4937725;29;20070;-74
2023/07/15 05:49:06;;;;;;;7.70;2.35;;;;;;;;;;4922520;29;20027;-75
2023/07/15 05:51:32;;;;;;;6.00;2.25;;;;;;;;;;4935524;29;20314;-76
2023/07/15 05:53:58;;;;;;;7.72;2.38;;;;;;;;;;4926417;29;20031;-75
2023/07/15 05:56:23;;;;;;;7.57;2.30;;;;;;;;;;4921644;29;20031;-76
2023/07/15 05:58:50;;;;;;;3.75;2.10;;;;;;;;;;4941796;29;20058;-76
2023/07/15 06:01:16;;;;;;;4.53;2.38;;;;;;;;;;4923107;29;20092;-75
2023/07/15 06:03:41;;;;;;;4.78;2.25;;;;;;;;;;4940471;29;20044;-76
2023/07/15 06:06:07;;;;;;;7.45;2.53;;;;;;;;;;4931682;29;20124;-76
2023/07/15 06:08:33;;;;;;;5.03;2.78;;;;;;;;;;4955759;29;20051;-77
2023/07/15 06:10:58;;;;;;;9.00;2.30;;;;;;;;;;4938218;29;20064;-77
2023/07/15 06:13:29;;;;;;;6.18;2.75;;;;;;;;;;4918870;29;20514;-76
2023/07/15 06:15:55;;;;;;;4.70;2.22;;;;;;;;;;4935602;29;20106;-74
2023/07/15 06:18:21;;;;;;;6.18;2.20;;;;;;;;;;4903313;29;20118;-76
2023/07/15 06:20:47;;;;;;;9.00;2.60;;;;;;;;;;4903126;29;20095;-75
2023/07/15 06:23:13;;;;;;;7.28;2.35;;;;;;;;;;4919206;29;20090;-77
2023/07/15 06:25:38;;;;;;;8.10;2.47;;;;;;;;;;4936161;29;20027;-76
2023/07/15 06:28:04;;;;;;;5.90;2.28;;;;;;;;;;4936782;29;20403;-77
2023/07/15 06:30:29;;;;;;;8.13;2.70;;;;;;;;;;4936103;29;20019;-76
2023/07/15 06:32:55;;;;;;;3.70;2.15;;;;;;;;;;4919292;29;20563;-75
2023/07/15 06:35:21;;;;;;;9.15;2.38;;;;;;;;;;4936305;29;20510;-75
2023/07/15 06:37:50;;;;;;;4.97;2.40;;;;;;;;;;4935370;29;20031;-74
2023/07/15 06:40:16;;;;;;;5.45;2.10;;;;;;;;;;4935293;29;20082;-75
2023/07/15 06:42:45;;;;;;;8.07;2.42;;;;;;;;;;4934783;29;20526;-73
2023/07/15 06:45:11;;;;;;;4.78;2.13;;;;;;;;;;4935025;29;20484;-74
2023/07/15 06:47:37;;;;;;;8.93;2.38;;;;;;;;;;4902133;29;20028;-74
2023/07/15 06:50:02;;;;;;;8.63;2.63;;;;;;;;;;4935560;29;20024;-76
2023/07/15 06:52:28;;;;;;;4.07;2.13;;;;;;;;;;4937746;29;20515;-74
2023/07/15 06:54:53;;;;;;;5.95;2.13;;;;;;;;;;4944457;29;20571;-75
2023/07/15 06:57:19;;;;;;;7.95;2.20;;;;;;;;;;4900209;29;20031;-73
2023/07/15 06:59:45;;;;;;;5.50;2.10;;;;;;;;;;4932987;29;20031;-74
2023/07/15 07:02:10;;;;;;;5.57;2.53;;;;;;;;;;4936943;29;20028;-74
2023/07/15 07:04:36;;;;;;;6.22;2.17;;;;;;;;;;4918050;29;20028;-76
2023/07/15 07:07:01;;;;;;;5.30;2.03;;;;;;;;;;4934971;29;20388;-76
2023/07/15 07:09:27;;;;;;;6.03;2.22;;;;;;;;;;4901982;29;20040;-76
2023/07/15 07:11:52;;;;;;;6.15;2.22;;;;;;;;;;4934842;29;20038;-76
2023/07/15 07:14:18;;;;;;;6.28;1.90;;;;;;;;;;4934850;29;20032;-75
2023/07/15 07:16:44;;;;;;;8.90;2.40;;;;;;;;;;4902280;29;20440;-76
2023/07/15 07:19:09;;;;;;;3.45;1.92;;;;;;;;;;4934015;29;20036;-75
2023/07/15 07:21:35;;;;;;;7.72;2.30;;;;;;;;;;4917444;29;20036;-76
2023/07/15 07:24:01;;;;;;;9.18;2.22;;;;;;;;;;4934947;29;20494;-77
2023/07/15 07:26:26;;;;;;;4.53;1.90;;;;;;;;;;4902074;29;20036;-75
2023/07/15 07:28:52;;;;;;;5.18;1.80;;;;;;;;;;4904217;29;20510;-75
2023/07/15 07:31:18;;;;;;;5.10;2.40;;;;;;;;;;4941478;29;20039;-77
2023/07/15 07:33:44;;;;;;;3.50;1.98;;;;;;;;;;4941782;29;20104;-77
2023/07/15 07:36:09;;;;;;;4.90;2.03;;;;;;;;;;4925008;29;20040;-77
2023/07/15 07:38:35;;;;;;;6.68;1.95;;;;;;;;;;4924725;29;20055;-76
2023/07/15 07:41:08;;;;;;;5.72;1.90;;;;;;;;;;4941520;29;20023;-76
2023/07/15 07:43:34;;;;;;;7.18;2.17;;;;;;;;;;4942084;29;20032;-77
2023/07/15 07:46:00;;;;;;;6.32;2.03;;;;;;;;;;4941884;29;20119;-75
2023/07/15 07:48:26;;;;;;;5.85;1.90;;;;;;;;;;4941759;29;20428;-76
2023/07/15 07:50:52;;;;;;;4.57;1.90;;;;;;;;;;4924703;29;20055;-76
2023/07/15 07:53:17;;;;;;;6.18;2.30;;;;;;;;;;4942175;29;20495;-76
2023/07/15 07:55:43;;;;;;;6.30;2.00;;;;;;;;;;4924715;29;20118;-75
2023/07/15 07:58:08;;;;;;;4.97;2.10;;;;;;;;;;4909363;29;20044;-76
2023/07/15 08:00:34;;;;;;;6.68;2.03;;;;;;;;;;4941915;29;20083;-75
2023/07/15 08:02:59;;;;;;;3.67;2.10;;;;;;;;;;4924994;29;20039;-76
2023/07/15 08:05:25;;;;;;;2.90;1.80;;;;;;;;;;4894788;29;20054;-77
2023/07/15 08:07:51;;;;;;;4.65;1.80;;;;;;;;;;4909575;29;20047;-75
2023/07/15 08:10:16;;;;;;;4.20;1.85;;;;;;;;;;4942173;29;20032;-75
2023/07/15 08:12:42;;;;;;;3.60;1.90;;;;;;;;;;4924816;29;20031;-76
2023/07/15 08:15:08;;;;;;;4.60;1.67;;;;;;;;;;4924864;29;20031;-78
2023/07/15 08:17:36;;;;;;;3.63;1.73;;;;;;;;;;4941608;29;20035;-77
2023/07/15 08:20:02;;;;;;;5.63;1.67;;;;;;;;;;4909380;29;20057;-77
2023/07/15 08:22:28;;;;;;;4.75;2.03;;;;;;;;;;4940955;29;20035;-75
2023/07/15 08:24:54;;;;;;;3.50;1.60;;;;;;;;;;4944133;29;20116;-74
2023/07/15 08:27:20;;;;;;;4.30;1.98;;;;;;;;;;4946198;29;20071;-76
2023/07/15 08:29:45;;;;;;;4.20;1.80;;;;;;;;;;4923625;29;20028;-75
2023/07/15 08:32:11;;;;;;;2.25;1.27;;;;;;;;;;4942663;29;20066;-75
2023/07/15 08:34:36;;;;;;;7.93;1.73;;;;;;;;;;4955683;29;20515;-77
2023/07/15 08:37:02;;;;;;;4.82;1.55;;;;;;;;;;4940779;29;20376;-74
2023/07/15 08:39:28;;;;;;;3.58;1.88;;;;;;;;;;4956692;29;20103;-77
2023/07/15 08:41:53;;;;;;;4.13;1.42;;;;;;;;;;4948741;29;20507;-77
2023/07/15 08:44:19;;;;;;;8.32;1.65;;;;;;;;;;4925471;29;20028;-75
2023/07/15 08:46:48;;;;;;;2.95;1.48;;;;;;;;;;4938379;29;20028;-76
2023/07/15 08:49:15;;;;;;;4.95;1.80;;;;;;;;;;4938025;29;20052;-75
2023/07/15 08:51:41;;;;;;;8.88;1.70;;;;;;;;;;4937971;29;20032;-76
2023/07/15 08:54:08;;;;;;;3.25;1.45;;;;;;;;;;4938144;29;20030;-76
2023/07/15 08:56:36;;;;;;;3.95;1.60;;;;;;;;;;4938181;29;20054;-74
2023/07/15 08:59:05;;;;;;;6.72;1.70;;;;;;;;;;4936782;29;20511;-76
2023/07/15 09:01:30;;;;;;;;;;;;;;;;;;4938433;29;20487;-75
2023/07/15 09:03:56;;;;;;;3.92;1.92;;;;;;;;;;4937671;29;19918;-75
2023/07/15 09:06:22;;;;;;;2.90;1.73;;;;;;;;;;4938192;29;20495;-75
2023/07/15 09:08:51;;;;;;;3.50;1.55;;;;;;;;;;4938799;29;20039;-77
2023/07/15 09:11:16;;;;;;;3.95;1.70;;;;;;;;;;4941693;29;20062;-76
2023/07/15 09:13:42;;;;;;;3.78;1.52;;;;;;;;;;4893854;29;20087;-76
2023/07/15 09:16:08;;;;;;;5.30;1.55;;;;;;;;;;4942177;29;20165;-74
2023/07/15 09:18:37;;;;;;;3.88;1.60;;;;;;;;;;4942123;29;20036;-77
2023/07/15 09:21:14;;;;;;;3.83;1.38;;;;;;;;;;4938930;29;20023;-74
2023/07/15 09:23:41;;;;;;;5.03;2.17;;;;;;;;;;4939302;29;20042;-74
2023/07/15 09:26:07;;;;;;;3.83;1.50;;;;;;;;;;4935322;29;20031;-77
2023/07/15 09:28:33;;;;;;;6.85;1.65;;;;;;;;;;4936884;29;20028;-76
2023/07/15 09:30:59;;;;;;;4.47;1.70;;;;;;;;;;4919468;29;20036;-76
2023/07/15 09:33:29;;;;;;;4.97;1.70;;;;;;;;;;4920077;29;20042;-75
2023/07/15 09:35:55;;;;;;;3.22;1.50;;;;;;;;;;4936576;29;20035;-75
2023/07/15 09:38:20;;;;;;;3.38;1.70;;;;;;;;;;4904505;29;20027;-76
2023/07/15 09:40:46;;;;;;;7.30;1.50;;;;;;;;;;4936677;29;20035;-77
2023/07/15 09:43:12;;;;;;;2.78;1.30;;;;;;;;;;4937017;29;20099;-75
2023/07/15 09:45:39;;;;;;;6.95;1.92;;;;;;;;;;4936913;29;20034;-76
2023/07/15 09:48:05;;;;;;;4.03;1.70;;;;;;;;;;4919870;29;20071;-75
2023/07/15 09:50:33;;;;;;;3.53;1.60;;;;;;;;;;4936276;29;20043;-77
2023/07/15 09:52:59;;;;;;;3.65;1.63;;;;;;;;;;4918833;29;20163;-75
2023/07/15 09:55:25;;;;;;;5.65;1.80;;;;;;;;;;4919642;29;20400;-75
2023/07/15 09:57:53;;;;;;;5.60;1.70;;;;;;;;;;4903896;29;20035;-76
2023/07/15 10:00:19;;;;;;;7.40;1.50;;;;;;;;;;4935897;29;20491;-76
2023/07/15 10:02:48;;;;;;;5.68;1.92;;;;;;;;;;4919616;29;20122;-76
2023/07/15 10:05:14;;;;;;;2.92;1.85;;;;;;;;;;4935104;29;20031;-75
2023/07/15 10:07:43;;;;;;;2.83;1.50;;;;;;;;;;4919194;29;20028;-76
2023/07/15 10:10:09;;;;;;;3.13;1.60;;;;;;;;;;4936224;29;20032;-78
2023/07/15 10:12:35;;;;;;;5.28;1.25;;;;;;;;;;4902599;29;20058;-75
2023/07/15 10:15:02;;;;;;;5.10;1.40;;;;;;;;;;4903378;29;20054;-75
2023/07/15 10:17:35;;;;;;;4.70;1.40;;;;;;;;;;4919772;29;20047;-77
2023/07/15 10:20:04;;;;;;;4.55;1.25;;;;;;;;;;4935656;29;20032;-77
2023/07/15 10:22:34;;;;;;;5.20;1.45;;;;;;;;;;4918925;29;20032;-77
2023/07/15 10:25:01;;;;;;;4.47;1.65;;;;;;;;;;4936377;29;20039;-76
2023/07/15 10:27:27;;;;;;;3.67;1.45;;;;;;;;;;4919183;29;20087;-77
2023/07/15 10:30:11;;;;;;;3.75;1.80;;;;;;;;;;4936796;29;20039;-75
2023/07/15 10:32:37;;;;;;;3.45;1.60;;;;;;;;;;4935970;29;20198;-75
2023/07/15 10:35:04;;;;;;;4.57;1.13;;;;;;;;;;4936473;29;20478;-75
2023/07/15 10:37:33;;;;;;;6.35;1.40;;;;;;;;;;4938426;29;20047;-77
2023/07/15 10:39:58;;;;;;;3.90;1.65;;;;;;;;;;4937226;29;20028;-76
2023/07/15 10:42:24;;;;;;;3.85;1.58;;;;;;;;;;4887812;29;20509;-77
2023/07/15 10:44:53;;;;;;;6.07;1.50;;;;;;;;;;4935669;29;20042;-75
2023/07/15 10:47:19;;;;;;;3.13;1.30;;;;;;;;;;4919628;29;20024;-76
2023/07/15 10:49:45;;;;;;;3.30;1.40;;;;;;;;;;4936791;29;20079;-76
2023/07/15 10:52:11;;;;;;;3.35;1.50;;;;;;;;;;4936014;29;20038;-74
2023/07/15 10:54:37;;;;;;;3.40;1.45;;;;;;;;;;4935159;29;20099;-77
2023/07/15 10:57:07;;;;;;;4.57;1.50;;;;;;;;;;4904946;29;20071;-77
2023/07/15 10:59:35;;;;;;;4.72;1.73;;;;;;;;;;4927217;29;20028;-75
2023/07/15 11:02:00;;;;;;;3.47;1.60;;;;;;;;;;4937771;29;20090;-76
2023/07/15 11:04:27;;;;;;;4.32;1.50;;;;;;;;;;4935971;29;20051;-76
2023/07/15 11:06:57;;;;;;;3.72;1.33;;;;;;;;;;4954287;29;20042;-75
2023/07/15 11:09:23;;;;;;;4.82;1.38;;;;;;;;;;4953281;29;20235;-77
2023/07/15 11:11:49;;;;;;;2.72;1.33;;;;;;;;;;4931637;29;20032;-76
2023/07/15 11:14:22;;;;;;;7.40;1.52;;;;;;;;;;4918052;29;20040;-75
2023/07/15 11:16:55;;;;;;;4.95;1.60;;;;;;;;;;4934696;29;20051;-77
2023/07/15 11:19:21;;;;;;;3.15;1.80;;;;;;;;;;4917936;29;20028;-76
2023/07/15 11:21:47;;;;;;;3.40;1.30;;;;;;;;;;4934539;29;20036;-77
2023/07/15 11:24:17;;;;;;;2.67;1.40;;;;;;;;;;4902502;29;20134;-77
2023/07/15 11:26:43;;;;;;;2.88;1.38;;;;;;;;;;4918308;29;20031;-76
2023/07/15 11:29:16;;;;;;;3.20;1.80;;;;;;;;;;4935358;29;20031;-76
2023/07/15 11:31:43;;;;;;;4.13;1.60;;;;;;;;;;4917971;29;20078;-76
2023/07/15 11:34:09;;;;;;;3.83;1.80;;;;;;;;;;4918089;29;20059;-75
2023/07/15 11:36:36;;;;;;;3.50;1.45;;;;;;;;;;4935051;29;20033;-75
2023/07/15 11:39:04;;;;;;;2.47;1.40;;;;;;;;;;4934956;29;20102;-74
2023/07/15 11:41:31;;;;;;;5.45;1.50;;;;;;;;;;4934689;29;20270;-76
2023/07/15 11:43:57;;;;;;;3.85;1.40;;;;;;;;;;4917917;29;20435;-75
2023/07/15 11:46:22;;;;;;;8.75;1.80;;;;;;;;;;4933809;29;20024;-77
2023/07/15 11:48:48;;;;;;;4.78;1.40;;;;;;;;;;4934969;29;20031;-76
2023/07/15 11:51:13;;;;;;;6.65;1.55;;;;;;;;;;4934951;29;20030;-77
2023/07/15 11:53:41;;;;;;;2.50;1.40;;;;;;;;;;4918699;29;20035;-76
2023/07/15 11:56:07;;;;;;;4.68;2.20;;;;;;;;;;4935118;29;20031;-76
2023/07/15 11:58:36;;;;;;;2.50;1.50;;;;;;;;;;4918449;29;20040;-77
2023/07/15 12:01:01;;;;;;;3.75;1.83;;;;;;;;;;4901811;29;20435;-77
2023/07/15 12:03:27;;;;;;;4.72;1.42;;;;;;;;;;4935176;29;20059;-75
2023/07/15 12:05:52;;;;;;;3.78;1.73;;;;;;;;;;4935173;29;20032;-74
2023/07/15 12:08:19;;;;;;;6.05;2.30;;;;;;;;;;4918088;29;20492;-76
2023/07/15 12:10:54;;;;;;;9.77;1.50;;;;;;;;;;4917619;29;20039;-74
2023/07/15 12:13:21;;;;;;;4.72;1.40;;;;;;;;;;4935033;29;20036;-75
2023/07/15 12:15:46;;;;;;;5.90;1.45;;;;;;;;;;4937102;29;20049;-75
2023/07/15 12:18:12;;;;;;;4.65;1.55;;;;;;;;;;4937782;29;20488;-74
2023/07/15 12:20:37;;;;;;;2.00;1.10;;;;;;;;;;4938756;29;20484;-74
2023/07/15 12:23:03;;;;;;;4.32;1.48;;;;;;;;;;4906147;29;20032;-77
2023/07/15 12:25:29;;;;;;;4.03;1.60;;;;;;;;;;4921417;29;20035;-77
2023/07/15 12:27:54;;;;;;;2.97;1.55;;;;;;;;;;4938481;29;20118;-76
2023/07/15 12:30:20;;;;;;;3.05;1.38;;;;;;;;;;4921395;29;20115;-76
2023/07/15 12:32:48;;;;;;;3.45;1.50;;;;;;;;;;4920968;29;20483;-74
2023/07/15 12:35:14;;;;;;;3.42;1.40;;;;;;;;;;4921598;29;20032;-75
2023/07/15 12:37:40;;;;;;;3.58;1.52;;;;;;;;;;4921725;29;20094;-76
2023/07/15 12:40:08;;;;;;;4.97;1.35;;;;;;;;;;4938447;29;20519;-76
2023/07/15 12:42:35;;;;;;;2.83;1.30;;;;;;;;;;4938150;29;20036;-76
2023/07/15 12:45:00;;;;;;;2.95;1.20;;;;;;;;;;4937817;29;20028;-77
2023/07/15 12:47:26;;;;;;;3.83;1.60;;;;;;;;;;4937521;29;20043;-76
2023/07/15 12:49:51;;;;;;;2.47;1.30;;;;;;;;;;4920418;29;20027;-76
2023/07/15 12:52:17;;;;;;;2.75;1.30;;;;;;;;;;4904410;29;20093;-77
2023/07/15 12:54:42;;;;;;;3.33;1.40;;;;;;;;;;4937325;29;20124;-77
2023/07/15 12:57:08;;;;;;;4.47;1.88;;;;;;;;;;4937250;29;20035;-76
2023/07/15 12:59:33;;;;;;;2.30;1.05;;;;;;;;;;4920177;29;20043;-76
2023/07/15 13:01:59;;;;;;;4.05;1.50;;;;;;;;;;4936766;29;20110;-75
2023/07/15 13:04:25;;;;;;;2.75;1.00;;;;;;;;;;4937264;29;20391;-75
2023/07/15 13:06:50;;;;;;;1.95;1.20;;;;;;;;;;4938052;29;20042;-76
2023/07/15 13:09:16;;;;;;;3.22;1.30;;;;;;;;;;4921246;29;20024;-77
2023/07/15 13:11:42;;;;;;;2.47;1.30;;;;;;;;;;4937997;29;20032;-75
2023/07/15 13:14:10;;;;;;;3.53;1.25;;;;;;;;;;4937109;29;20067;-74
2023/07/15 13:16:36;;;;;;;4.75;2.30;;;;;;;;;;4920298;29;20063;-76
2023/07/15 13:19:01;;;;;;;3.20;1.30;;;;;;;;;;4919960;29;20023;-75
2023/07/15 13:21:27;;;;;;;3.72;1.40;;;;;;;;;;4888179;29;20036;-77
2023/07/15 13:23:53;;;;;;;3.13;1.25;;;;;;;;;;4937629;29;20031;-77
2023/07/15 13:26:19;;;;;;;3.00;1.38;;;;;;;;;;4937117;29;20614;-76
2023/07/15 13:28:44;;;;;;;3.50;1.63;;;;;;;;;;4922139;29;20060;-77
2023/07/15 13:31:10;;;;;;;3.75;1.48;;;;;;;;;;4913146;29;20039;-75
2023/07/15 13:33:35;;;;;;;5.93;1.40;;;;;;;;;;4916555;29;20042;-76
2023/07/15 13:36:01;;;;;;;3.42;1.38;;;;;;;;;;4947667;29;20115;-76
2023/07/15 13:38:26;;;;;;;2.80;1.30;;;;;;;;;;4947413;29;20143;-75
2023/07/15 13:40:52;;;;;;;1.77;1.02;;;;;;;;;;4946563;29;20067;-76
2023/07/15 13:43:18;;;;;;;3.08;1.25;;;;;;;;;;4943960;29;20042;-76
2023/07/15 13:45:44;;;;;;;1.95;1.08;;;;;;;;;;4924033;29;20044;-74
2023/07/15 13:48:09;;;;;;;4.30;1.38;;;;;;;;;;4936389;29;20043;-76
2023/07/15 13:50:35;;;;;;;3.03;1.38;;;;;;;;;;4903370;29;20035;-78
2023/07/15 13:53:00;;;;;;;3.08;1.27;;;;;;;;;;4936832;29;20027;-76
2023/07/15 13:55:26;;;;;;;2.60;1.10;;;;;;;;;;4937105;29;20518;-77
2023/07/15 13:57:51;;;;;;;4.05;1.80;;;;;;;;;;4936857;29;20042;-76
2023/07/15 14:00:17;;;;;;;2.90;1.42;;;;;;;;;;4920507;29;20040;-76
2023/07/15 14:02:42;;;;;;;3.72;1.42;;;;;;;;;;4936653;29;20028;-77
2023/07/15 14:05:08;;;;;;;5.10;1.30;;;;;;;;;;4920346;29;20027;-77
2023/07/15 14:07:33;;;;;;;2.88;1.17;;;;;;;;;;4937486;29;20245;-77
2023/07/15 14:09:59;;;;;;;3.67;1.40;;;;;;;;;;4937208;29;20439;-74
2023/07/15 14:12:25;;;;;;;3.97;1.30;;;;;;;;;;4919425;29;20039;-76
2023/07/15 14:14:51;;;;;;;5.43;1.30;;;;;;;;;;4919731;29;20043;-77
2023/07/15 14:17:17;;;;;;;3.45;1.40;;;;;;;;;;4936720;29;20114;-79
2023/07/15 14:19:42;;;;;;;2.25;1.20;;;;;;;;;;4919646;29;20391;-76
2023/07/15 14:22:08;;;;;;;3.17;1.40;;;;;;;;;;4903150;29;20035;-77
2023/07/15 14:24:36;;;;;;;2.80;1.33;;;;;;;;;;4919523;29;20056;-77
2023/07/15 14:27:02;;;;;;;7.45;1.58;;;;;;;;;;4936373;29;20106;-77
2023/07/15 14:29:28;;;;;;;2.65;1.40;;;;;;;;;;4936374;29;20122;-77
2023/07/15 14:31:53;;;;;;;3.45;1.30;;;;;;;;;;4935708;29;20036;-76
2023/07/15 14:34:19;;;;;;;4.45;1.52;;;;;;;;;;4918485;29;20035;-76
2023/07/15 14:36:44;;;;;;;3.75;1.60;;;;;;;;;;4918616;29;20451;-76